Time;durP1;ratioP1;P1;durP2;ratioP2;P2;SDS_P1;SDS_P2;PMS_P1;PMS_P2;Temp;Humidity;BMP_temperature;BMP_pressure;BME280_temperature;BME280_humidity;BME280_pressure;Samples;Min_cycle;Max_cycle;Signal;HPM_P1;HPM_P2
2022/09/01 00:02:15;;;;;;;11.55;8.07;;;21.20;99.90;;;;;;5117470;28;20123;-72
2022/09/01 00:04:46;;;;;;;15.80;7.85;;;21.10;99.90;;;;;;5115300;28;20099;-73
2022/09/01 00:07:13;;;;;;;19.85;9.43;;;21.10;99.90;;;;;;5114698;28;20098;-72
2022/09/01 00:09:39;;;;;;;17.77;8.13;;;21.00;99.90;;;;;;5117289;28;20436;-72
2022/09/01 00:12:08;;;;;;;13.27;8.23;;;21.00;99.90;;;;;;5117365;28;20081;-73
2022/09/01 00:14:38;;;;;;;17.08;7.78;;;21.00;99.90;;;;;;5117287;28;20028;-73
2022/09/01 00:17:06;;;;;;;12.38;8.35;;;21.00;99.90;;;;;;5112990;28;20023;-73
2022/09/01 00:19:34;;;;;;;13.90;7.75;;;20.90;99.90;;;;;;5109011;28;20132;-73
2022/09/01 00:22:01;;;;;;;14.95;7.10;;;20.90;99.90;;;;;;5113532;28;20009;-72
2022/09/01 00:24:27;;;;;;;18.30;8.23;;;20.80;99.90;;;;;;5109262;28;21337;-73
2022/09/01 00:26:55;;;;;;;15.68;7.05;;;20.80;99.90;;;;;;5121037;28;20111;-73
2022/09/01 00:29:21;;;;;;;14.15;7.55;;;20.80;99.90;;;;;;5121520;28;20026;-73
2022/09/01 00:31:47;;;;;;;18.02;9.05;;;20.70;99.90;;;;;;5121127;28;20080;-72
2022/09/01 00:34:14;;;;;;;18.63;8.35;;;20.70;99.90;;;;;;5121003;28;20012;-72
2022/09/01 00:36:40;;;;;;;16.13;8.18;;;20.70;99.90;;;;;;5121261;28;20046;-73
2022/09/01 00:39:06;;;;;;;14.32;7.65;;;20.60;99.90;;;;;;5119841;28;20049;-73
2022/09/01 00:41:37;;;;;;;16.98;8.85;;;20.60;99.90;;;;;;5121128;28;20024;-72
2022/09/01 00:44:10;;;;;;;17.05;8.25;;;20.60;99.90;;;;;;5119792;28;20091;-73
2022/09/01 00:46:43;;;;;;;12.07;7.55;;;20.50;99.90;;;;;;5119699;28;20122;-72
2022/09/01 00:49:25;;;;;;;12.68;7.22;;;20.50;99.90;;;;;;5119652;28;20023;-72
2022/09/01 00:52:00;;;;;;;19.73;8.05;;;20.50;99.90;;;;;;5119732;28;20058;-73
2022/09/01 00:54:32;;;;;;;16.10;7.28;;;20.40;99.90;;;;;;5120727;28;20024;-73
2022/09/01 00:56:58;;;;;;;23.00;8.68;;;20.40;99.90;;;;;;5110284;28;20016;-72
2022/09/01 00:59:26;;;;;;;16.50;7.95;;;20.30;99.90;;;;;;5118449;28;20019;-73
2022/09/01 01:01:52;;;;;;;12.43;7.20;;;20.40;99.90;;;;;;5120805;28;20019;-72
2022/09/01 01:04:18;;;;;;;19.15;8.73;;;20.30;99.90;;;;;;5120261;28;20066;-72
2022/09/01 01:06:49;;;;;;;17.40;8.63;;;20.30;99.90;;;;;;5113623;28;20460;-73
2022/09/01 01:09:18;;;;;;;17.17;7.75;;;20.30;99.90;;;;;;5119327;28;20023;-72
2022/09/01 01:11:46;;;;;;;16.65;8.88;;;20.30;99.90;;;;;;5114089;28;20023;-72
2022/09/01 01:14:16;;;;;;;13.30;8.27;;;20.20;99.90;;;;;;5120644;28;20027;-72
2022/09/01 01:16:44;;;;;;;16.47;8.03;;;20.20;99.90;;;;;;5119173;28;20046;-73
2022/09/01 01:23:01;;;;;;;11.68;7.93;;;20.20;99.90;;;;;;5108367;28;20028;-73
2022/09/01 01:24:57;;;;;;;13.38;8.07;;;20.10;99.90;;;;;;5120349;28;20042;-73
2022/09/01 01:27:23;;;;;;;16.95;7.55;;;20.10;99.90;;;;;;5118758;28;20476;-73
2022/09/01 01:29:51;;;;;;;13.48;8.23;;;20.10;99.90;;;;;;5120252;28;20106;-73
2022/09/01 01:32:17;;;;;;;19.02;9.73;;;20.00;99.90;;;;;;5119054;28;20053;-73
2022/09/01 01:34:44;;;;;;;13.65;8.73;;;20.00;99.90;;;;;;5116025;28;20090;-73
2022/09/01 01:37:13;;;;;;;15.55;8.30;;;20.00;99.90;;;;;;5119763;27;20505;-73
2022/09/01 01:39:42;;;;;;;16.98;8.75;;;20.00;99.90;;;;;;5119823;28;20019;-73
2022/09/01 01:42:09;;;;;;;18.10;8.90;;;19.90;99.90;;;;;;5118842;28;20365;-72
2022/09/01 01:44:37;;;;;;;13.48;9.40;;;19.90;99.90;;;;;;5119863;28;20023;-73
2022/09/01 01:47:07;;;;;;;14.35;7.90;;;19.80;99.90;;;;;;5119982;27;20020;-73
2022/09/01 01:49:34;;;;;;;16.48;8.40;;;19.80;99.90;;;;;;5113225;28;20042;-73
2022/09/01 01:52:00;;;;;;;21.33;9.10;;;19.80;99.90;;;;;;5112031;28;20028;-72
2022/09/01 01:54:31;;;;;;;18.42;8.75;;;19.80;99.90;;;;;;5109077;28;20035;-73
2022/09/01 01:56:58;;;;;;;18.02;9.50;;;19.70;99.90;;;;;;5115317;28;20044;-72
2022/09/01 01:59:25;;;;;;;18.70;9.90;;;19.70;99.90;;;;;;5118413;28;20080;-72
2022/09/01 02:01:52;;;;;;;16.55;9.35;;;19.60;99.90;;;;;;5119611;27;20426;-73
2022/09/01 02:04:19;;;;;;;22.27;8.93;;;19.60;99.90;;;;;;5118070;28;20506;-73
2022/09/01 02:06:47;;;;;;;19.10;9.85;;;19.60;99.90;;;;;;5114413;28;20023;-73
2022/09/01 02:09:16;;;;;;;20.70;9.02;;;19.50;99.90;;;;;;5118500;28;20024;-73
2022/09/01 02:11:44;;;;;;;17.00;9.00;;;19.50;99.90;;;;;;5118032;28;20495;-73
2022/09/01 02:14:11;;;;;;;14.98;8.63;;;19.50;99.90;;;;;;5118077;28;20024;-73
2022/09/01 02:16:37;;;;;;;18.20;8.77;;;19.50;99.90;;;;;;5118904;28;20027;-72
2022/09/01 02:19:06;;;;;;;13.80;8.95;;;19.50;99.90;;;;;;5105860;28;20419;-72
2022/09/01 02:21:32;;;;;;;19.30;9.20;;;19.60;99.90;;;;;;5115446;28;20016;-73
2022/09/01 02:24:04;;;;;;;12.88;8.95;;;19.60;99.90;;;;;;5100859;28;20027;-73
2022/09/01 02:26:37;;;;;;;13.60;8.70;;;19.60;99.90;;;;;;5108479;28;20487;-73
2022/09/01 02:29:07;;;;;;;15.60;9.07;;;19.60;99.90;;;;;;5078601;28;20039;-73
2022/09/01 02:31:38;;;;;;;16.83;9.80;;;19.60;99.90;;;;;;5078264;28;20093;-72
2022/09/01 02:34:09;;;;;;;17.65;9.73;;;19.60;99.90;;;;;;5078296;28;20035;-73
2022/09/01 02:36:46;;;;;;;20.92;8.88;;;19.60;99.90;;;;;;5078197;28;20059;-73
2022/09/01 02:39:13;;;;;;;15.73;9.07;;;19.60;99.90;;;;;;5078197;28;20017;-73
2022/09/01 02:41:40;;;;;;;13.85;8.88;;;19.60;99.90;;;;;;5078032;28;20545;-73
2022/09/01 02:44:13;;;;;;;12.07;9.38;;;19.60;99.90;;;;;;5076925;28;20020;-73
2022/09/01 02:46:45;;;;;;;19.38;10.40;;;19.60;99.90;;;;;;5076759;28;20393;-72
2022/09/01 02:49:18;;;;;;;17.40;10.70;;;19.60;99.90;;;;;;5077258;28;20020;-72
2022/09/01 02:51:47;;;;;;;20.33;9.50;;;19.60;99.90;;;;;;5076515;28;20480;-72
2022/09/01 02:54:16;;;;;;;15.88;9.13;;;19.60;99.90;;;;;;5076403;28;20021;-73
2022/09/01 02:56:46;;;;;;;17.40;9.75;;;19.50;99.90;;;;;;5078122;28;20071;-73
2022/09/01 02:59:14;;;;;;;19.58;9.45;;;19.50;99.90;;;;;;5075057;28;20048;-72
2022/09/01 03:01:41;;;;;;;13.90;9.00;;;19.50;99.90;;;;;;5076661;28;20019;-73
2022/09/01 03:04:08;;;;;;;15.25;9.90;;;19.50;99.90;;;;;;5076062;28;20029;-73
2022/09/01 03:06:36;;;;;;;17.35;9.18;;;19.50;99.90;;;;;;5074940;28;20056;-73
2022/09/01 03:09:07;;;;;;;15.73;9.27;;;19.50;99.90;;;;;;5075993;28;20024;-72
2022/09/01 03:11:36;;;;;;;18.60;9.68;;;19.50;99.90;;;;;;5076200;28;20063;-73
2022/09/01 03:14:03;;;;;;;19.85;9.18;;;19.40;99.90;;;;;;5077331;28;20481;-73
2022/09/01 03:16:32;;;;;;;17.70;8.93;;;19.50;99.90;;;;;;5077546;28;20486;-72
2022/09/01 03:18:58;;;;;;;24.05;8.55;;;19.50;99.90;;;;;;5077048;28;20024;-73
2022/09/01 03:21:25;;;;;;;16.20;8.57;;;19.50;99.90;;;;;;5077439;28;20076;-73
2022/09/01 03:23:51;;;;;;;20.50;9.63;;;19.50;99.90;;;;;;5077465;28;20028;-73
2022/09/01 03:26:21;;;;;;;14.57;9.13;;;19.50;99.90;;;;;;5076379;28;20016;-73
2022/09/01 03:28:49;;;;;;;20.02;8.98;;;19.40;99.90;;;;;;5105280;28;20086;-73
2022/09/01 03:31:15;;;;;;;16.15;9.85;;;19.50;99.90;;;;;;5116407;28;20019;-72
2022/09/01 03:33:41;;;;;;;19.02;9.75;;;19.50;99.90;;;;;;5113605;28;20074;-73
2022/09/01 03:36:17;;;;;;;15.88;8.65;;;19.50;99.90;;;;;;5110663;28;20026;-73
2022/09/01 03:38:48;;;;;;;23.83;9.63;;;19.40;99.90;;;;;;5117678;28;20007;-73
2022/09/01 03:41:16;;;;;;;10.23;8.45;;;19.50;99.90;;;;;;5117788;28;20020;-73
2022/09/01 03:43:44;;;;;;;16.27;8.95;;;19.50;99.90;;;;;;5116271;28;20099;-73
2022/09/01 03:46:11;;;;;;;19.50;9.50;;;19.40;99.90;;;;;;5117612;28;20057;-73
2022/09/01 03:48:37;;;;;;;15.35;9.23;;;19.40;99.90;;;;;;5116053;28;20020;-72
2022/09/01 03:51:03;;;;;;;14.65;8.43;;;19.40;99.90;;;;;;5117593;28;20415;-73
2022/09/01 03:53:36;;;;;;;17.15;9.85;;;19.40;99.90;;;;;;5117558;28;20034;-73
2022/09/01 03:56:04;;;;;;;12.43;8.98;;;19.40;99.90;;;;;;5113254;28;20016;-73
2022/09/01 03:58:30;;;;;;;13.13;8.40;;;19.30;99.90;;;;;;5104758;28;20016;-73
2022/09/01 04:00:59;;;;;;;22.23;9.45;;;19.30;99.90;;;;;;5103442;28;20030;-73
2022/09/01 04:03:27;;;;;;;18.75;9.70;;;19.30;99.90;;;;;;5113822;28;20019;-73
2022/09/01 04:05:53;;;;;;;12.40;9.13;;;19.30;99.90;;;;;;5113433;28;20024;-73
2022/09/01 04:08:28;;;;;;;18.40;10.18;;;19.30;99.90;;;;;;5116125;28;20102;-73
2022/09/01 04:10:54;;;;;;;18.98;10.15;;;19.20;99.90;;;;;;5116025;28;20031;-73
2022/09/01 04:13:34;;;;;;;13.00;9.30;;;19.20;99.90;;;;;;5110142;28;20024;-73
2022/09/01 04:16:00;;;;;;;15.60;8.60;;;19.20;99.90;;;;;;5104015;28;20068;-73
2022/09/01 04:18:26;;;;;;;22.92;10.73;;;19.20;99.90;;;;;;5108734;28;20051;-73
2022/09/01 04:20:55;;;;;;;17.02;8.93;;;19.20;99.90;;;;;;5117243;28;20096;-73
2022/09/01 04:23:32;;;;;;;13.57;8.77;;;19.20;99.90;;;;;;5115608;28;20598;-73
2022/09/01 04:26:08;;;;;;;17.38;10.27;;;19.10;99.90;;;;;;5117186;28;20501;-73
2022/09/01 04:28:41;;;;;;;29.75;9.95;;;19.10;99.90;;;;;;5116270;28;20077;-73
2022/09/01 04:31:13;;;;;;;19.88;9.50;;;19.10;99.90;;;;;;5116968;28;20024;-73
2022/09/01 04:33:40;;;;;;;12.63;9.02;;;19.10;99.90;;;;;;5097037;28;20066;-73
2022/09/01 04:36:19;;;;;;;19.10;9.77;;;19.10;99.90;;;;;;5111464;28;20030;-73
2022/09/01 04:38:54;;;;;;;18.52;10.40;;;19.10;99.90;;;;;;5117032;28;20031;-73
2022/09/01 04:41:26;;;;;;;18.35;10.85;;;19.00;99.90;;;;;;5117039;28;20026;-73
2022/09/01 04:43:56;;;;;;;12.90;9.73;;;19.00;99.90;;;;;;5117081;28;20110;-73
2022/09/01 04:46:28;;;;;;;16.38;10.40;;;19.00;99.90;;;;;;5116625;28;20035;-73
2022/09/01 04:48:56;;;;;;;21.75;10.75;;;19.00;99.90;;;;;;5116702;28;20020;-73
2022/09/01 04:51:26;;;;;;;17.42;11.07;;;19.00;99.90;;;;;;5116932;28;20033;-73
2022/09/01 04:53:56;;;;;;;18.15;10.55;;;19.00;99.90;;;;;;5116745;28;20023;-73
2022/09/01 04:56:24;;;;;;;14.68;10.63;;;19.00;99.90;;;;;;5115720;28;20500;-73
2022/09/01 04:58:52;;;;;;;17.58;10.13;;;19.00;99.90;;;;;;5116819;28;20041;-73
2022/09/01 05:01:23;;;;;;;14.85;9.32;;;19.00;99.90;;;;;;5115518;28;20512;-72
2022/09/01 05:04:00;;;;;;;16.75;9.73;;;19.00;99.90;;;;;;5113963;28;20169;-73
2022/09/01 05:06:27;;;;;;;16.65;10.10;;;19.00;99.90;;;;;;5106597;28;20095;-72
2022/09/01 05:08:56;;;;;;;21.90;10.50;;;19.00;99.90;;;;;;5116880;28;20084;-73
2022/09/01 05:11:22;;;;;;;21.40;10.27;;;19.00;99.90;;;;;;5117526;28;20024;-73
2022/09/01 05:13:49;;;;;;;16.60;10.57;;;19.00;99.90;;;;;;5120453;28;20031;-72
2022/09/01 05:16:20;;;;;;;18.63;10.75;;;19.00;99.90;;;;;;5120395;28;20034;-72
2022/09/01 05:18:48;;;;;;;19.13;10.65;;;19.00;99.90;;;;;;5107306;28;20020;-73
2022/09/01 05:21:17;;;;;;;14.85;9.77;;;18.90;99.90;;;;;;5120374;28;20015;-73
2022/09/01 05:23:45;;;;;;;15.73;10.13;;;18.90;99.90;;;;;;5119197;28;20024;-73
2022/09/01 05:26:17;;;;;;;19.27;10.90;;;18.90;99.90;;;;;;5118851;28;20076;-73
2022/09/01 05:28:45;;;;;;;16.92;10.25;;;18.90;99.90;;;;;;5120090;28;20048;-73
2022/09/01 05:31:11;;;;;;;18.27;10.82;;;18.90;99.90;;;;;;5111601;28;20029;-73
2022/09/01 05:33:44;;;;;;;16.70;10.20;;;18.90;99.90;;;;;;5119984;28;20055;-73
2022/09/01 05:36:11;;;;;;;20.77;10.15;;;18.90;99.90;;;;;;5118570;28;20026;-73
2022/09/01 05:38:40;;;;;;;21.92;11.52;;;18.90;99.90;;;;;;5118531;28;20023;-73
2022/09/01 05:41:08;;;;;;;24.00;12.00;;;19.00;99.90;;;;;;5119964;28;20019;-72
2022/09/01 05:43:35;;;;;;;19.75;9.73;;;19.00;99.90;;;;;;5120115;28;20085;-73
2022/09/01 05:46:06;;;;;;;15.57;10.45;;;19.00;99.90;;;;;;5118376;28;20066;-73
2022/09/01 05:48:38;;;;;;;;;;;19.00;99.90;;;;;;5117757;28;20026;-73
2022/09/01 05:51:09;;;;;;;15.70;10.23;;;19.00;99.90;;;;;;5119593;28;19904;-73
2022/09/01 05:53:34;;;;;;;16.55;10.55;;;19.10;99.90;;;;;;5119529;28;20068;-73
2022/09/01 05:56:06;;;;;;;21.85;11.50;;;19.10;99.90;;;;;;5119704;28;20102;-72
2022/09/01 05:58:33;;;;;;;16.77;9.57;;;19.20;99.90;;;;;;5119882;28;20120;-73
2022/09/01 06:01:00;;;;;;;22.75;9.63;;;19.20;99.90;;;;;;5119488;28;20026;-73
2022/09/01 06:03:27;;;;;;;13.63;9.18;;;19.30;99.90;;;;;;5119275;28;20075;-73
2022/09/01 06:05:54;;;;;;;17.38;9.63;;;19.30;99.90;;;;;;5110892;27;20106;-72
2022/09/01 06:08:27;;;;;;;14.50;9.60;;;19.40;99.90;;;;;;5119688;28;20086;-73
2022/09/01 06:10:54;;;;;;;17.17;10.23;;;19.40;99.90;;;;;;5117769;28;20160;-73
2022/09/01 06:13:20;;;;;;;12.68;8.98;;;19.50;99.90;;;;;;5119198;28;20016;-72
2022/09/01 06:15:52;;;;;;;18.05;9.45;;;19.60;99.90;;;;;;5118096;28;20024;-73
2022/09/01 06:18:20;;;;;;;19.77;9.02;;;19.70;99.90;;;;;;5108282;28;20015;-73
2022/09/01 06:20:47;;;;;;;18.10;8.57;;;19.70;99.90;;;;;;5118116;28;20019;-73
2022/09/01 06:23:16;;;;;;;10.77;7.88;;;19.80;99.90;;;;;;5114338;28;20016;-73
2022/09/01 06:25:45;;;;;;;19.70;9.55;;;19.90;99.90;;;;;;5117891;28;20028;-73
2022/09/01 06:28:20;;;;;;;17.95;8.70;;;20.00;99.90;;;;;;5103981;28;20036;-73
2022/09/01 06:30:46;;;;;;;14.95;9.20;;;20.10;99.90;;;;;;5104146;28;20553;-74
2022/09/01 06:33:12;;;;;;;12.00;7.43;;;20.20;99.90;;;;;;5114324;28;20030;-74
2022/09/01 06:35:40;;;;;;;17.45;7.70;;;20.20;99.90;;;;;;5118644;28;20028;-75
2022/09/01 06:38:08;;;;;;;12.75;7.25;;;20.30;99.90;;;;;;5118262;28;20015;-75
2022/09/01 06:40:38;;;;;;;11.27;7.93;;;20.30;99.90;;;;;;5118552;28;20034;-74
2022/09/01 06:43:06;;;;;;;14.90;8.15;;;20.30;99.90;;;;;;5099685;28;20105;-74
2022/09/01 06:45:39;;;;;;;14.57;7.93;;;20.40;99.90;;;;;;5117415;28;20034;-76
2022/09/01 06:48:06;;;;;;;15.73;7.50;;;20.40;99.90;;;;;;5117906;28;20012;-76
2022/09/01 06:50:31;;;;;;;10.75;7.57;;;20.60;99.90;;;;;;5116807;28;20053;-77
2022/09/01 06:53:09;;;;;;;13.55;7.60;;;20.70;99.90;;;;;;5117531;28;20555;-76
2022/09/01 06:55:37;;;;;;;15.38;6.90;;;20.70;99.90;;;;;;5103905;28;20024;-75
2022/09/01 06:58:07;;;;;;;15.15;6.95;;;20.80;99.90;;;;;;5111618;28;20020;-74
2022/09/01 07:00:40;;;;;;;17.30;7.50;;;20.80;99.90;;;;;;5117360;28;20023;-74
2022/09/01 07:03:08;;;;;;;10.75;6.72;;;20.80;99.90;;;;;;5116685;28;20035;-74
2022/09/01 07:05:38;;;;;;;11.80;7.40;;;20.90;99.90;;;;;;5114494;28;20026;-76
2022/09/01 07:08:09;;;;;;;12.50;6.68;;;20.90;99.90;;;;;;5101213;28;20441;-74
2022/09/01 07:10:44;;;;;;;11.82;7.38;;;21.00;99.90;;;;;;5097642;28;20024;-73
2022/09/01 07:13:17;;;;;;;13.70;6.78;;;21.00;99.90;;;;;;5097318;28;20052;-73
2022/09/01 07:15:43;;;;;;;13.68;7.07;;;21.00;99.90;;;;;;5112023;28;20024;-73
2022/09/01 07:18:11;;;;;;;11.35;6.63;;;21.00;99.90;;;;;;5115276;28;20035;-73
2022/09/01 07:20:40;;;;;;;11.60;6.38;;;21.20;99.90;;;;;;5116407;28;20030;-72
2022/09/01 07:23:07;;;;;;;10.93;6.13;;;21.20;99.90;;;;;;5099649;28;20024;-73
2022/09/01 07:25:36;;;;;;;11.23;6.60;;;21.20;99.90;;;;;;5106021;28;20073;-73
2022/09/01 07:28:02;;;;;;;14.55;6.65;;;21.20;99.90;;;;;;5115482;28;20048;-72
2022/09/01 07:30:29;;;;;;;11.82;6.57;;;21.30;99.90;;;;;;5117431;28;20506;-73
2022/09/01 07:32:56;;;;;;;15.60;5.85;;;21.50;99.90;;;;;;5117097;28;20023;-73
2022/09/01 07:35:22;;;;;;;11.45;6.13;;;21.60;99.90;;;;;;5116594;28;20020;-72
2022/09/01 07:37:50;;;;;;;11.07;6.15;;;21.70;99.90;;;;;;5097864;28;20024;-73
2022/09/01 07:40:21;;;;;;;13.80;6.40;;;21.80;99.90;;;;;;5104926;28;20019;-72
2022/09/01 07:42:48;;;;;;;12.80;6.72;;;22.00;99.90;;;;;;5108655;28;20020;-73
2022/09/01 07:45:15;;;;;;;15.80;6.38;;;22.10;99.90;;;;;;5117636;28;20539;-72
2022/09/01 07:47:43;;;;;;;11.60;6.07;;;22.20;99.90;;;;;;5108659;28;20040;-74
2022/09/01 07:50:14;;;;;;;13.27;7.15;;;22.30;99.90;;;;;;5115059;28;20023;-72
2022/09/01 07:52:42;;;;;;;9.55;6.07;;;22.20;99.90;;;;;;5111984;28;20032;-72
2022/09/01 07:55:15;;;;;;;11.70;6.45;;;22.20;99.90;;;;;;5115656;28;20020;-72
2022/09/01 07:57:44;;;;;;;8.90;5.32;;;22.30;99.90;;;;;;5105637;28;20077;-72
2022/09/01 08:00:14;;;;;;;13.32;6.70;;;22.30;99.90;;;;;;5112148;28;20102;-73
2022/09/01 08:02:43;;;;;;;9.75;5.55;;;22.40;99.90;;;;;;5115399;28;20537;-72
2022/09/01 08:05:16;;;;;;;9.50;5.30;;;22.30;99.90;;;;;;5115282;28;20026;-72
2022/09/01 08:07:46;;;;;;;13.88;5.95;;;22.10;99.90;;;;;;5116063;28;20173;-72
2022/09/01 08:10:12;;;;;;;10.93;5.93;;;22.00;99.90;;;;;;5103958;28;20020;-73
2022/09/01 08:12:38;;;;;;;11.07;5.22;;;22.10;99.90;;;;;;5116932;28;20054;-72
2022/09/01 08:15:07;;;;;;;12.60;6.07;;;22.10;99.90;;;;;;5100986;28;20028;-76
2022/09/01 08:17:33;;;;;;;17.33;5.38;;;22.30;99.90;;;;;;5113231;28;20514;-76
2022/09/01 08:20:00;;;;;;;14.88;5.82;;;22.50;99.90;;;;;;5115709;28;20589;-76
2022/09/01 08:22:25;;;;;;;13.98;6.20;;;22.50;99.90;;;;;;5115558;28;20020;-75
2022/09/01 08:24:52;;;;;;;14.18;6.10;;;22.60;99.90;;;;;;5112551;28;20030;-76
2022/09/01 08:27:19;;;;;;;17.33;6.07;;;22.70;99.90;;;;;;5114101;28;20044;-76
2022/09/01 08:29:45;;;;;;;12.23;5.55;;;22.60;99.90;;;;;;5109854;28;20031;-76
2022/09/01 08:32:11;;;;;;;13.80;7.00;;;22.70;99.90;;;;;;5115809;28;20149;-76
2022/09/01 08:34:37;;;;;;;10.07;5.28;;;22.90;99.90;;;;;;5116787;28;20057;-76
2022/09/01 08:37:04;;;;;;;12.07;5.97;;;23.10;99.90;;;;;;5116708;28;20102;-74
2022/09/01 08:39:31;;;;;;;11.98;5.20;;;23.20;99.90;;;;;;5108740;28;20004;-75
2022/09/01 08:42:22;;;;;;;16.25;6.15;;;23.30;99.90;;;;;;5096148;28;20388;-75
2022/09/01 08:44:50;;;;;;;11.13;4.95;;;23.30;99.90;;;;;;5102034;28;20039;-76
2022/09/01 08:47:18;;;;;;;11.18;5.45;;;23.30;99.90;;;;;;5110639;28;20061;-75
2022/09/01 08:49:45;;;;;;;14.05;6.97;;;23.60;99.90;;;;;;5117907;28;20028;-75
2022/09/01 08:52:31;;;;;;;9.57;5.30;;;23.80;99.90;;;;;;5119341;28;20027;-74
2022/09/01 08:55:26;;;;;;;11.25;5.20;;;24.10;99.90;;;;;;5112232;28;20016;-74
2022/09/01 08:57:56;;;;;;;9.93;6.03;;;24.20;99.90;;;;;;5120171;28;20034;-74
2022/09/01 09:00:27;;;;;;;11.57;5.53;;;24.20;99.90;;;;;;5120806;28;20495;-73
2022/09/01 09:03:08;;;;;;;14.07;5.80;;;24.10;99.90;;;;;;5106912;28;20110;-73
2022/09/01 09:06:02;;;;;;;5.82;4.53;;;24.10;99.90;;;;;;5101970;28;20024;-73
2022/09/01 09:08:46;;;;;;;11.20;5.70;;;24.00;99.90;;;;;;5113552;28;20019;-73
2022/09/01 09:11:38;;;;;;;14.50;4.95;;;23.90;99.90;;;;;;5116333;28;20576;-75
2022/09/01 09:14:46;;;;;;;9.75;5.20;;;24.00;99.90;;;;;;5110539;28;20054;-74
2022/09/01 09:17:16;;;;;;;14.90;6.05;;;24.10;99.90;;;;;;5111991;28;20012;-74
2022/09/01 09:19:44;;;;;;;11.52;4.85;;;24.60;99.90;;;;;;5106748;28;20040;-77
2022/09/01 09:22:15;;;;;;;16.35;5.88;;;24.50;99.90;;;;;;5119465;28;20019;-77
2022/09/01 09:25:01;;;;;;;15.95;5.00;;;24.40;99.90;;;;;;5114102;28;20039;-77
2022/09/01 09:27:29;;;;;;;9.55;5.28;;;24.30;99.90;;;;;;5114521;28;20044;-77
2022/09/01 09:30:02;;;;;;;15.40;5.55;;;24.30;99.90;;;;;;5120218;28;20865;-77
2022/09/01 09:32:50;;;;;;;11.88;5.68;;;24.20;99.90;;;;;;5118143;28;20525;-77
2022/09/01 09:35:37;;;;;;;12.38;5.75;;;24.40;99.90;;;;;;5107159;28;20019;-77
2022/09/01 09:38:17;;;;;;;9.32;5.18;;;24.30;99.90;;;;;;5120038;28;20379;-80
2022/09/01 09:41:00;;;;;;;12.07;6.22;;;24.60;99.90;;;;;;5120098;28;20020;-75
2022/09/01 09:43:29;;;;;;;18.55;6.53;;;24.90;99.90;;;;;;5106223;28;20023;-77
2022/09/01 09:46:32;;;;;;;11.25;5.35;;;25.00;99.90;;;;;;5119648;28;20024;-74
2022/09/01 09:49:11;;;;;;;22.20;7.35;;;25.10;99.90;;;;;;5113403;28;20018;-75
2022/09/01 09:51:40;;;;;;;20.45;5.63;;;25.00;99.90;;;;;;5118342;28;20058;-76
2022/09/01 09:54:12;;;;;;;10.02;5.13;;;24.70;99.90;;;;;;5119376;28;20020;-75
2022/09/01 09:56:40;;;;;;;10.10;6.00;;;24.80;99.90;;;;;;5118483;28;20020;-75
2022/09/01 09:59:28;;;;;;;13.95;5.43;;;24.70;99.90;;;;;;5116053;28;20012;-75
2022/09/01 10:02:30;;;;;;;10.75;5.07;;;24.80;99.90;;;;;;5103275;28;20020;-76
2022/09/01 10:04:58;;;;;;;10.75;5.10;;;25.30;99.90;;;;;;5115479;28;20016;-75
2022/09/01 10:07:33;;;;;;;9.95;4.80;;;25.50;99.90;;;;;;5105729;28;20023;-75
2022/09/01 10:10:06;;;;;;;8.68;5.15;;;25.80;99.90;;;;;;5099722;28;20076;-76
2022/09/01 10:12:33;;;;;;;13.40;6.15;;;26.00;99.90;;;;;;5110741;28;20053;-76
2022/09/01 10:15:02;;;;;;;12.30;5.00;;;25.90;99.90;;;;;;5117818;28;20407;-75
2022/09/01 10:17:38;;;;;;;11.15;5.28;;;26.20;99.90;;;;;;5116106;28;20023;-75
2022/09/01 10:20:17;;;;;;;8.68;5.32;;;26.20;99.90;;;;;;5102357;28;20020;-77
2022/09/01 10:22:43;;;;;;;12.05;5.40;;;26.20;99.90;;;;;;5111282;28;20240;-77
2022/09/01 10:25:16;;;;;;;14.32;5.63;;;26.30;99.90;;;;;;5109843;28;20019;-76
2022/09/01 10:27:47;;;;;;;9.05;4.60;;;26.30;99.90;;;;;;5111940;28;20418;-76
2022/09/01 10:30:16;;;;;;;14.93;5.18;;;26.30;99.90;;;;;;5112295;28;20024;-76
2022/09/01 10:32:50;;;;;;;8.63;5.00;;;26.20;99.90;;;;;;5117615;28;20027;-75
2022/09/01 10:35:38;;;;;;;18.02;5.40;;;26.20;99.90;;;;;;5098183;28;20015;-76
2022/09/01 10:38:08;;;;;;;12.98;4.50;;;25.70;99.90;;;;;;5108933;28;20026;-76
2022/09/01 10:40:45;;;;;;;12.98;5.47;;;25.50;99.90;;;;;;5116897;28;20023;-77
2022/09/01 10:43:34;;;;;;;10.02;4.68;;;25.50;99.90;;;;;;5102602;28;20051;-77
2022/09/01 10:46:27;;;;;;;11.95;5.13;;;25.40;99.90;;;;;;5112960;28;20023;-76
2022/09/01 10:48:56;;;;;;;10.98;5.15;;;25.20;99.90;;;;;;5105702;28;20120;-75
2022/09/01 10:51:22;;;;;;;13.20;5.38;;;25.30;99.90;;;;;;5111965;28;20076;-76
2022/09/01 10:53:48;;;;;;;10.48;5.05;;;25.50;99.90;;;;;;5106268;28;20032;-74
2022/09/01 10:56:26;;;;;;;9.68;5.32;;;25.80;99.90;;;;;;5116028;28;20090;-77
2022/09/01 10:59:20;;;;;;;10.02;5.47;;;25.80;99.90;;;;;;5114132;28;20031;-77
2022/09/01 11:02:02;;;;;;;9.70;4.43;;;26.00;99.90;;;;;;5112806;28;20047;-77
2022/09/01 11:04:31;;;;;;;9.02;5.32;;;26.00;99.90;;;;;;5103650;28;20031;-77
2022/09/01 11:07:03;;;;;;;10.10;4.97;;;26.10;99.90;;;;;;5116744;28;20395;-75
2022/09/01 11:09:37;;;;;;;14.23;6.03;;;26.20;99.90;;;;;;5117612;28;20110;-76
2022/09/01 11:12:28;;;;;;;8.75;5.35;;;26.30;99.90;;;;;;5113126;28;20023;-75
2022/09/01 11:14:55;;;;;;;8.45;5.03;;;26.30;99.90;;;;;;5117707;28;20457;-75
2022/09/01 11:17:53;;;;;;;12.50;4.78;;;26.10;99.90;;;;;;5116427;28;20015;-76
2022/09/01 11:20:28;;;;;;;13.98;5.70;;;26.10;99.90;;;;;;5116636;28;20023;-75
2022/09/01 11:23:00;;;;;;;15.63;5.10;;;25.90;99.90;;;;;;5118128;28;20015;-76
2022/09/01 11:25:42;;;;;;;7.00;5.00;;;26.00;99.90;;;;;;5107830;28;20055;-76
2022/09/01 11:28:08;;;;;;;13.73;4.88;;;25.90;99.90;;;;;;5110879;28;20036;-75
2022/09/01 11:30:50;;;;;;;11.15;5.10;;;25.80;99.90;;;;;;5105286;28;20042;-75
2022/09/01 11:33:35;;;;;;;10.32;5.13;;;25.90;99.90;;;;;;5102796;28;20032;-76
2022/09/01 11:36:04;;;;;;;14.45;6.18;;;26.10;99.90;;;;;;5117294;28;20027;-75
2022/09/01 11:38:50;;;;;;;14.13;5.65;;;26.00;99.90;;;;;;5117352;28;20020;-76
2022/09/01 11:41:32;;;;;;;11.13;5.20;;;26.00;99.90;;;;;;5113169;28;20271;-76
2022/09/01 11:44:00;;;;;;;13.98;6.03;;;26.10;99.90;;;;;;5109079;28;20536;-76
2022/09/01 11:46:31;;;;;;;18.13;5.80;;;26.20;99.90;;;;;;5106166;28;20032;-77
2022/09/01 11:49:02;;;;;;;13.70;5.60;;;26.20;99.90;;;;;;5117019;28;20024;-76
2022/09/01 11:51:42;;;;;;;15.90;5.40;;;26.20;99.90;;;;;;5116319;28;20031;-76
2022/09/01 11:54:09;;;;;;;16.00;5.25;;;26.20;99.90;;;;;;5114735;28;20024;-76
2022/09/01 11:56:35;;;;;;;10.25;5.75;;;26.10;99.90;;;;;;5116271;28;20056;-76
2022/09/01 11:59:01;;;;;;;10.73;5.78;;;26.10;99.90;;;;;;5113647;28;20020;-78
2022/09/01 12:01:34;;;;;;;18.98;5.35;;;26.40;99.90;;;;;;5113943;28;20027;-76
2022/09/01 12:04:24;;;;;;;10.73;5.53;;;26.50;99.90;;;;;;5111237;28;20020;-76
2022/09/01 12:06:57;;;;;;;14.75;6.43;;;26.60;99.90;;;;;;5117314;28;20023;-75
2022/09/01 12:09:32;;;;;;;9.30;4.88;;;26.30;99.90;;;;;;5110178;28;20085;-76
2022/09/01 12:11:58;;;;;;;11.30;4.70;;;26.20;99.90;;;;;;5117299;28;20148;-77
2022/09/01 12:14:24;;;;;;;9.07;4.47;;;26.40;99.90;;;;;;5115822;28;20392;-74
2022/09/01 12:17:05;;;;;;;11.68;5.40;;;26.50;99.90;;;;;;5113974;28;20031;-75
2022/09/01 12:19:33;;;;;;;7.60;4.28;;;26.70;99.90;;;;;;5116258;28;20019;-77
2022/09/01 12:22:12;;;;;;;15.15;6.00;;;26.90;99.90;;;;;;5121458;28;20024;-75
2022/09/01 12:24:38;;;;;;;11.82;5.80;;;27.10;99.90;;;;;;5121430;28;20027;-74
2022/09/01 12:27:04;;;;;;;7.60;4.78;;;27.10;99.90;;;;;;5107710;28;20095;-75
2022/09/01 12:29:31;;;;;;;7.82;4.47;;;27.30;99.90;;;;;;5118513;28;20019;-77
2022/09/01 12:31:58;;;;;;;7.40;4.93;;;27.40;99.90;;;;;;5111954;28;20027;-75
2022/09/01 12:34:26;;;;;;;11.40;5.40;;;27.60;99.90;;;;;;5112313;28;20020;-77
2022/09/01 12:37:06;;;;;;;8.38;4.57;;;27.60;99.90;;;;;;5119998;28;20034;-77
2022/09/01 12:39:41;;;;;;;10.05;4.55;;;27.60;99.90;;;;;;5107589;28;20096;-76
2022/09/01 12:42:31;;;;;;;12.57;5.90;;;27.70;99.90;;;;;;5121312;28;20030;-76
2022/09/01 12:45:03;;;;;;;9.50;5.03;;;27.60;99.90;;;;;;5101897;28;20036;-76
2022/09/01 12:47:35;;;;;;;9.18;4.43;;;27.50;99.90;;;;;;5110882;28;20054;-75
2022/09/01 12:50:07;;;;;;;11.13;4.97;;;27.40;99.90;;;;;;5109787;28;20069;-74
2022/09/01 12:52:35;;;;;;;8.90;4.88;;;27.50;99.90;;;;;;5117353;28;20053;-74
2022/09/01 12:55:02;;;;;;;10.30;4.90;;;27.40;99.90;;;;;;5109226;28;20024;-75
2022/09/01 12:57:30;;;;;;;11.10;5.18;;;27.50;99.90;;;;;;5115287;28;20556;-76
2022/09/01 13:00:20;;;;;;;9.15;4.80;;;27.60;99.90;;;;;;5096450;28;20057;-76
2022/09/01 13:03:01;;;;;;;10.43;4.32;;;27.70;99.90;;;;;;5110523;28;20032;-75